createdAt,value
2023-05-13T00:00:03.365Z,18.30
2023-05-13T00:02:30.021Z,18.30
2023-05-13T00:04:56.810Z,18.20
2023-05-13T00:07:23.439Z,18.30
2023-05-13T00:09:50.106Z,18.30
2023-05-13T00:12:16.655Z,18.30
2023-05-13T00:14:43.407Z,18.20
2023-05-13T00:17:09.968Z,18.30
2023-05-13T00:19:36.627Z,18.20
2023-05-13T00:22:03.401Z,18.20
2023-05-13T00:24:30.057Z,18.20
2023-05-13T00:26:56.622Z,18.10
2023-05-13T00:29:23.317Z,18.10
2023-05-13T00:31:49.984Z,18.10
2023-05-13T00:34:18.456Z,18.10
2023-05-13T00:36:45.551Z,18.10
2023-05-13T00:39:12.146Z,18.00
2023-05-13T00:41:38.943Z,18.00
2023-05-13T00:44:05.566Z,17.90
2023-05-13T00:46:35.029Z,17.80
2023-05-13T00:49:02.181Z,17.80
2023-05-13T00:51:28.785Z,17.90
2023-05-13T00:53:58.035Z,17.80
2023-05-13T00:56:25.785Z,17.80
2023-05-13T00:58:52.424Z,17.90
2023-05-13T01:01:37.663Z,17.90
2023-05-13T01:04:10.325Z,17.90
2023-05-13T01:06:44.903Z,17.90
2023-05-13T01:09:16.951Z,17.90
2023-05-13T01:11:44.508Z,17.90
2023-05-13T01:14:22.900Z,17.90
2023-05-13T01:16:52.191Z,17.90
2023-05-13T01:19:30.797Z,17.80
2023-05-13T01:21:57.493Z,17.80
2023-05-13T01:24:24.150Z,17.80
2023-05-13T01:26:50.941Z,17.70
2023-05-13T01:29:17.701Z,17.80
2023-05-13T01:31:46.212Z,17.70
2023-05-13T01:34:13.874Z,17.70
2023-05-13T01:36:40.647Z,17.70
2023-05-13T01:39:07.685Z,17.60
2023-05-13T01:41:34.429Z,17.70
2023-05-13T01:44:00.984Z,17.70
2023-05-13T01:46:27.791Z,17.60
2023-05-13T01:48:54.744Z,17.60
2023-05-13T01:51:21.431Z,17.60
2023-05-13T01:53:48.014Z,17.70
2023-05-13T01:56:14.698Z,17.50
2023-05-13T01:58:41.334Z,17.50
2023-05-13T02:01:07.932Z,17.30
2023-05-13T02:03:35.337Z,17.30
2023-05-13T02:06:02.148Z,17.30
2023-05-13T02:08:28.807Z,17.30
2023-05-13T02:10:56.263Z,17.30
2023-05-13T02:13:22.972Z,17.20
2023-05-13T02:15:49.662Z,17.20
2023-05-13T02:18:16.253Z,17.30
2023-05-13T02:20:42.827Z,17.30
2023-05-13T02:23:09.546Z,17.30
2023-05-13T02:25:36.137Z,17.30
2023-05-13T02:28:02.748Z,17.30
2023-05-13T02:30:29.347Z,17.40
2023-05-13T02:32:57.223Z,17.30
2023-05-13T02:35:25.525Z,17.30
2023-05-13T02:37:52.102Z,17.30
2023-05-13T02:40:18.862Z,17.20
2023-05-13T02:42:45.615Z,17.20
2023-05-13T02:45:12.207Z,17.20
2023-05-13T02:47:39.891Z,17.10
2023-05-13T02:50:07.928Z,17.10
2023-05-13T02:52:38.965Z,17.10
2023-05-13T02:55:09.463Z,17.00
2023-05-13T02:57:37.677Z,17.00
2023-05-13T03:00:05.252Z,16.90
2023-05-13T03:02:32.618Z,16.80
2023-05-13T03:04:59.191Z,16.80
2023-05-13T03:07:25.834Z,16.80
2023-05-13T03:09:52.459Z,16.80
2023-05-13T03:12:19.086Z,16.80
2023-05-13T03:14:45.757Z,16.80
2023-05-13T03:17:12.412Z,16.70
2023-05-13T03:19:39.166Z,16.70
2023-05-13T03:22:06.106Z,16.80
2023-05-13T03:24:32.926Z,16.70
2023-05-13T03:26:59.797Z,16.70
2023-05-13T03:29:26.639Z,16.80
2023-05-13T03:31:53.546Z,16.80
2023-05-13T03:34:20.230Z,16.60
2023-05-13T03:36:46.859Z,16.60
2023-05-13T03:39:13.436Z,16.60
2023-05-13T03:41:40.168Z,16.50
2023-05-13T03:44:06.782Z,16.60
2023-05-13T03:46:34.092Z,16.50
2023-05-13T03:49:00.874Z,16.50
2023-05-13T03:51:27.565Z,16.50
2023-05-13T03:53:54.227Z,16.50
2023-05-13T03:56:21.585Z,16.50
2023-05-13T03:58:48.317Z,16.50
2023-05-13T04:01:14.917Z,16.50
2023-05-13T04:03:44.160Z,16.50
2023-05-13T04:06:10.976Z,16.40
2023-05-13T04:08:37.555Z,16.50
2023-05-13T04:11:04.139Z,16.50
2023-05-13T04:13:30.839Z,16.40
2023-05-13T04:15:58.029Z,16.40
2023-05-13T04:18:24.676Z,16.50
2023-05-13T04:20:51.278Z,16.50
2023-05-13T04:23:17.902Z,16.30
2023-05-13T04:25:50.070Z,16.20
2023-05-13T04:28:17.972Z,16.30
2023-05-13T04:30:44.767Z,16.30
2023-05-13T04:33:11.778Z,16.30
2023-05-13T04:35:38.484Z,16.20
2023-05-13T04:38:05.673Z,16.10
2023-05-13T04:40:32.309Z,16.10
2023-05-13T04:42:58.934Z,16.20
2023-05-13T04:45:25.514Z,16.30
2023-05-13T04:47:52.160Z,16.40
2023-05-13T04:50:18.859Z,16.40
2023-05-13T04:52:47.215Z,16.40
2023-05-13T04:55:13.853Z,16.30
2023-05-13T04:57:40.455Z,16.40
2023-05-13T05:00:09.401Z,16.40
2023-05-13T05:02:36.160Z,16.50
2023-05-13T05:05:02.858Z,16.40
2023-05-13T05:07:29.530Z,16.20
2023-05-13T05:09:56.368Z,16.20
2023-05-13T05:12:22.964Z,16.30
2023-05-13T05:14:49.537Z,16.40
2023-05-13T05:17:16.263Z,16.40
2023-05-13T05:19:42.912Z,16.40
2023-05-13T05:22:09.501Z,16.50
2023-05-13T05:24:36.097Z,16.30
2023-05-13T05:27:02.708Z,16.30
2023-05-13T05:29:29.290Z,16.30
2023-05-13T05:31:55.912Z,16.20
2023-05-13T05:34:22.622Z,16.40
2023-05-13T05:36:49.249Z,16.50
2023-05-13T05:39:16.078Z,16.60
2023-05-13T05:41:42.721Z,16.60
2023-05-13T05:44:09.420Z,16.70
2023-05-13T05:46:36.064Z,16.80
2023-05-13T05:49:03.815Z,16.80
2023-05-13T05:51:30.632Z,16.80
2023-05-13T05:53:57.230Z,16.90
2023-05-13T05:56:23.803Z,17.00
2023-05-13T05:58:50.614Z,17.10
2023-05-13T06:01:17.194Z,17.20
2023-05-13T06:03:45.469Z,17.30
2023-05-13T06:06:12.101Z,17.30
2023-05-13T06:08:38.710Z,17.40
2023-05-13T06:11:05.343Z,17.50
2023-05-13T06:13:31.937Z,17.40
2023-05-13T06:15:58.611Z,17.50
2023-05-13T06:18:25.848Z,17.50
2023-05-13T06:20:52.451Z,17.60
2023-05-13T06:23:19.063Z,17.70
2023-05-13T06:25:46.812Z,17.90
2023-05-13T06:28:13.386Z,17.90
2023-05-13T06:30:39.984Z,18.00
2023-05-13T06:33:08.249Z,18.10
2023-05-13T06:35:34.932Z,18.20
2023-05-13T06:38:01.582Z,18.40
2023-05-13T06:40:28.274Z,18.50
2023-05-13T06:42:54.917Z,18.50
2023-05-13T06:45:23.384Z,18.60
2023-05-13T06:47:50.770Z,18.70
2023-05-13T06:50:17.440Z,18.70
2023-05-13T06:52:44.049Z,18.70
2023-05-13T06:55:10.817Z,18.70
2023-05-13T06:57:43.009Z,18.70
2023-05-13T07:00:10.601Z,18.90
2023-05-13T07:02:37.315Z,19.00
2023-05-13T07:05:04.017Z,19.10
2023-05-13T07:07:30.634Z,19.20
2023-05-13T07:09:57.313Z,19.30
2023-05-13T07:12:23.980Z,19.50
2023-05-13T07:14:50.785Z,19.60
2023-05-13T07:17:17.601Z,19.70
2023-05-13T07:19:44.298Z,19.60
2023-05-13T07:22:11.399Z,19.70
2023-05-13T07:24:38.500Z,19.70
2023-05-13T07:27:05.200Z,19.70
2023-05-13T07:29:32.376Z,19.70
2023-05-13T07:32:03.236Z,19.80
2023-05-13T07:34:29.886Z,19.80
2023-05-13T07:36:56.449Z,19.90
2023-05-13T07:39:23.114Z,20.00
2023-05-13T07:41:50.030Z,20.10
2023-05-13T07:44:16.631Z,20.20
2023-05-13T07:46:43.403Z,20.30
2023-05-13T07:49:10.139Z,20.30
2023-05-13T07:51:36.777Z,20.40
2023-05-13T07:54:03.413Z,20.40
2023-05-13T07:56:30.871Z,20.40
2023-05-13T07:58:57.928Z,20.40
2023-05-13T08:01:24.560Z,20.30
2023-05-13T08:03:51.376Z,20.30
2023-05-13T08:06:18.173Z,20.20
2023-05-13T08:08:44.804Z,20.20
2023-05-13T08:11:11.578Z,20.20
2023-05-13T08:13:38.460Z,20.20
2023-05-13T08:16:07.103Z,20.40
2023-05-13T08:18:34.025Z,20.50
2023-05-13T08:21:00.741Z,20.50
2023-05-13T08:23:40.313Z,20.50
2023-05-13T08:26:11.623Z,20.50
2023-05-13T08:28:38.601Z,20.60
2023-05-13T08:31:05.339Z,20.60
2023-05-13T08:33:32.576Z,20.60
2023-05-13T08:35:59.734Z,20.60
2023-05-13T08:38:26.415Z,20.40
2023-05-13T08:40:53.114Z,20.40
2023-05-13T08:43:19.920Z,20.40
2023-05-13T08:45:47.568Z,20.50
2023-05-13T08:48:15.091Z,20.50
2023-05-13T08:50:41.839Z,20.50
2023-05-13T08:53:09.989Z,20.60
2023-05-13T08:55:38.389Z,20.70
2023-05-13T08:58:04.985Z,20.80
2023-05-13T09:00:32.244Z,21.00
2023-05-13T09:02:59.025Z,21.00
2023-05-13T09:05:25.881Z,21.20
2023-05-13T09:07:53.289Z,21.40
2023-05-13T09:10:20.774Z,21.30
2023-05-13T09:12:49.027Z,21.30
2023-05-13T09:15:17.221Z,21.40
2023-05-13T09:17:45.430Z,21.40
2023-05-13T09:20:13.100Z,21.60
2023-05-13T09:22:49.505Z,21.90
2023-05-13T09:25:16.793Z,22.10
2023-05-13T09:27:44.640Z,22.20
2023-05-13T09:30:11.538Z,22.30
2023-05-13T09:32:38.911Z,22.40
2023-05-13T09:35:19.173Z,22.40
2023-05-13T09:37:46.901Z,22.40
2023-05-13T09:40:14.766Z,22.50
2023-05-13T09:42:44.861Z,22.60
2023-05-13T09:45:15.507Z,22.80
2023-05-13T09:47:42.502Z,23.20
2023-05-13T09:50:09.899Z,23.60
2023-05-13T09:52:37.791Z,24.00
2023-05-13T09:55:05.371Z,24.40
2023-05-13T09:57:32.525Z,24.60
2023-05-13T09:59:59.840Z,25.60
2023-05-13T10:02:26.976Z,26.50
2023-05-13T10:04:54.966Z,27.50
2023-05-13T10:07:24.591Z,27.80
2023-05-13T10:10:01.930Z,27.60
2023-05-13T10:12:28.721Z,27.70
2023-05-13T10:14:55.467Z,27.50
2023-05-13T10:17:23.274Z,27.70
2023-05-13T10:19:50.760Z,27.70
2023-05-13T10:22:37.646Z,27.70
2023-05-13T10:25:05.124Z,27.20
2023-05-13T10:27:32.649Z,27.10
2023-05-13T10:30:03.229Z,27.20
2023-05-13T10:32:31.180Z,27.30
2023-05-13T10:35:00.814Z,27.40
2023-05-13T10:37:39.888Z,27.40
2023-05-13T10:40:12.945Z,27.80
2023-05-13T10:42:41.007Z,27.90
2023-05-13T10:45:07.790Z,27.90
2023-05-13T10:47:34.976Z,27.50
2023-05-13T10:50:05.485Z,27.50
2023-05-13T10:52:42.240Z,27.50
2023-05-13T10:55:14.671Z,27.10
2023-05-13T10:57:41.240Z,27.10
2023-05-13T11:00:15.530Z,27.10
2023-05-13T11:02:42.713Z,27.20
2023-05-13T11:05:09.951Z,26.60
2023-05-13T11:07:38.197Z,26.60
2023-05-13T11:10:23.705Z,26.70
2023-05-13T11:13:07.122Z,27.10
2023-05-13T11:15:43.505Z,27.30
2023-05-13T11:18:11.172Z,26.40
2023-05-13T11:20:51.618Z,26.30
2023-05-13T11:23:22.619Z,26.60
2023-05-13T11:26:10.004Z,26.40
2023-05-13T11:28:53.025Z,26.60
2023-05-13T11:31:21.201Z,26.40
2023-05-13T11:34:06.233Z,26.60
2023-05-13T11:36:33.742Z,26.30
2023-05-13T11:39:07.447Z,26.40
2023-05-13T11:41:34.365Z,26.70
2023-05-13T11:44:03.248Z,26.50
2023-05-13T11:46:30.162Z,26.70
2023-05-13T11:48:57.049Z,26.80
2023-05-13T11:51:25.174Z,26.80
2023-05-13T11:53:53.204Z,26.70
2023-05-13T11:56:19.823Z,27.00
2023-05-13T11:58:46.409Z,26.90
2023-05-13T12:01:15.837Z,27.10
2023-05-13T12:03:42.466Z,27.20
2023-05-13T12:06:09.418Z,27.20
2023-05-13T12:08:42.750Z,27.10
2023-05-13T12:11:13.017Z,27.00
2023-05-13T12:13:41.197Z,26.90
2023-05-13T12:16:08.497Z,26.70
2023-05-13T12:18:35.368Z,26.70
2023-05-13T12:21:13.204Z,26.80
2023-05-13T12:23:40.864Z,26.90
2023-05-13T12:26:07.861Z,26.50
2023-05-13T12:28:34.462Z,26.80
2023-05-13T12:31:01.982Z,27.10
2023-05-13T12:33:31.760Z,27.30
2023-05-13T12:36:20.043Z,27.00
2023-05-13T12:39:02.137Z,27.10
2023-05-13T12:41:32.686Z,27.10
2023-05-13T12:43:59.350Z,27.00
2023-05-13T12:46:26.203Z,27.00
2023-05-13T12:48:54.805Z,26.60
2023-05-13T12:51:21.412Z,26.50
2023-05-13T12:53:48.012Z,26.60
2023-05-13T12:56:14.939Z,27.00
2023-05-13T12:58:41.870Z,27.40
2023-05-13T13:01:11.098Z,27.60
2023-05-13T13:03:37.878Z,26.80
2023-05-13T13:06:04.755Z,27.00
2023-05-13T13:08:31.433Z,26.80
2023-05-13T13:10:59.160Z,26.60
2023-05-13T13:13:25.799Z,26.50
2023-05-13T13:15:52.705Z,26.10
2023-05-13T13:18:22.060Z,25.90
2023-05-13T13:20:48.722Z,26.00
2023-05-13T13:23:15.349Z,26.20
2023-05-13T13:25:42.029Z,26.50
2023-05-13T13:28:08.714Z,26.20
2023-05-13T13:30:35.414Z,25.80
2023-05-13T13:33:02.122Z,26.10
2023-05-13T13:35:28.863Z,26.50
2023-05-13T13:37:56.001Z,26.60
2023-05-13T13:40:22.968Z,26.40
2023-05-13T13:42:49.746Z,25.80
2023-05-13T13:45:16.374Z,25.60
2023-05-13T13:47:43.094Z,25.70
2023-05-13T13:50:10.086Z,25.80
2023-05-13T13:52:36.765Z,26.00
2023-05-13T13:55:03.516Z,26.20
2023-05-13T13:57:30.277Z,26.20
2023-05-13T13:59:56.868Z,26.10
2023-05-13T14:02:23.695Z,26.10
2023-05-13T14:04:50.694Z,26.10
2023-05-13T14:07:17.357Z,26.20
2023-05-13T14:09:43.964Z,26.10
2023-05-13T14:12:10.576Z,26.00
2023-05-13T14:14:37.161Z,26.00
2023-05-13T14:17:03.828Z,26.10
2023-05-13T14:19:30.557Z,26.10
2023-05-13T14:21:57.297Z,26.30
2023-05-13T14:24:24.327Z,26.30
2023-05-13T14:26:50.941Z,26.30
2023-05-13T14:29:17.577Z,26.10
2023-05-13T14:31:44.218Z,26.30
2023-05-13T14:34:11.020Z,26.20
2023-05-13T14:36:37.669Z,26.60
2023-05-13T14:39:04.392Z,26.60
2023-05-13T14:41:31.045Z,26.60
2023-05-13T14:43:57.650Z,26.90
2023-05-13T14:46:24.263Z,27.30
2023-05-13T14:48:50.901Z,27.30
2023-05-13T14:51:17.701Z,27.40
2023-05-13T14:53:44.255Z,27.10
2023-05-13T14:56:11.006Z,26.60
2023-05-13T14:58:37.643Z,26.40
2023-05-13T15:01:04.369Z,26.60
2023-05-13T15:03:31.005Z,26.70
2023-05-13T15:05:58.147Z,26.90
2023-05-13T15:08:25.261Z,27.30
2023-05-13T15:10:51.902Z,27.80
2023-05-13T15:13:18.972Z,28.10
2023-05-13T15:15:45.754Z,28.40
2023-05-13T15:18:12.348Z,29.10
2023-05-13T15:20:39.004Z,29.90
2023-05-13T15:23:05.571Z,30.40
2023-05-13T15:25:32.167Z,31.00
2023-05-13T15:27:58.762Z,31.60
2023-05-13T15:30:25.564Z,32.40
2023-05-13T15:32:52.207Z,32.50
2023-05-13T15:35:18.823Z,32.80
2023-05-13T15:37:45.383Z,33.20
2023-05-13T15:40:12.174Z,32.60
2023-05-13T15:42:38.840Z,32.50
2023-05-13T15:45:05.788Z,31.30
2023-05-13T15:47:32.479Z,30.10
2023-05-13T15:49:59.083Z,28.90
2023-05-13T15:52:25.824Z,28.20
2023-05-13T15:54:52.404Z,27.40
2023-05-13T15:57:19.195Z,27.30
2023-05-13T15:59:45.898Z,27.20
2023-05-13T16:02:12.541Z,27.10
2023-05-13T16:04:39.246Z,27.00
2023-05-13T16:07:10.754Z,26.70
2023-05-13T16:09:37.984Z,26.20
2023-05-13T16:12:04.720Z,25.70
2023-05-13T16:14:31.932Z,25.40
2023-05-13T16:17:01.678Z,25.30
2023-05-13T16:19:28.244Z,25.10
2023-05-13T16:21:54.853Z,24.40
2023-05-13T16:24:22.319Z,24.00
2023-05-13T16:26:48.980Z,24.00
2023-05-13T16:29:15.704Z,24.00
2023-05-13T16:31:42.347Z,24.00
2023-05-13T16:34:08.918Z,24.00
2023-05-13T16:36:35.665Z,23.90
2023-05-13T16:39:02.375Z,23.70
2023-05-13T16:41:29.005Z,23.50
2023-05-13T16:43:55.629Z,23.40
2023-05-13T16:46:22.217Z,23.30
2023-05-13T16:48:48.848Z,23.40
2023-05-13T16:51:15.491Z,23.40
2023-05-13T16:53:42.040Z,23.30
2023-05-13T16:56:08.647Z,23.20
2023-05-13T16:58:35.290Z,23.00
2023-05-13T17:01:01.898Z,23.10
2023-05-13T17:03:28.646Z,22.80
2023-05-13T17:05:55.411Z,22.60
2023-05-13T17:08:24.271Z,22.50
2023-05-13T17:10:50.974Z,22.60
2023-05-13T17:13:19.576Z,22.70
2023-05-13T17:15:46.827Z,22.80
2023-05-13T17:18:13.441Z,22.70
2023-05-13T17:20:40.037Z,22.60
2023-05-13T17:23:09.141Z,22.50
2023-05-13T17:25:35.830Z,22.50
2023-05-13T17:28:02.436Z,22.60
2023-05-13T17:30:29.020Z,22.70
2023-05-13T17:32:55.681Z,22.70
2023-05-13T17:35:23.047Z,22.60
2023-05-13T17:37:49.628Z,22.60
2023-05-13T17:40:16.207Z,22.70
2023-05-13T17:42:42.758Z,22.70
2023-05-13T17:45:09.543Z,22.90
2023-05-13T17:47:36.277Z,22.80
2023-05-13T17:50:03.008Z,22.80
2023-05-13T17:52:29.622Z,22.70
2023-05-13T17:54:56.236Z,22.70
2023-05-13T17:57:23.100Z,22.60
2023-05-13T17:59:49.735Z,22.60
2023-05-13T18:02:16.441Z,22.60
2023-05-13T18:04:43.131Z,22.50
2023-05-13T18:07:09.714Z,22.50
2023-05-13T18:09:36.260Z,22.40
2023-05-13T18:12:03.218Z,22.40
2023-05-13T18:14:32.127Z,22.30
2023-05-13T18:16:59.209Z,22.20
2023-05-13T18:19:26.643Z,22.20
2023-05-13T18:21:53.258Z,22.20
2023-05-13T18:24:19.867Z,22.20
2023-05-13T18:26:46.464Z,22.10
2023-05-13T18:29:13.040Z,22.00
2023-05-13T18:31:39.647Z,21.90
2023-05-13T18:34:06.367Z,21.80
2023-05-13T18:36:33.083Z,21.80
2023-05-13T18:38:59.689Z,21.90
2023-05-13T18:41:26.325Z,21.90
2023-05-13T18:43:52.871Z,21.80
2023-05-13T18:46:19.682Z,21.70
2023-05-13T18:48:46.422Z,21.70
2023-05-13T18:51:14.441Z,21.70
2023-05-13T18:53:41.001Z,21.60
2023-05-13T18:56:07.707Z,21.60
2023-05-13T18:58:34.293Z,21.70
2023-05-13T19:01:00.870Z,21.40
2023-05-13T19:03:27.679Z,21.40
2023-05-13T19:05:54.423Z,21.30
2023-05-13T19:08:21.099Z,21.30
2023-05-13T19:10:47.842Z,21.30
2023-05-13T19:13:14.818Z,21.30
2023-05-13T19:15:41.406Z,21.20
2023-05-13T19:18:08.062Z,21.20
2023-05-13T19:20:34.740Z,21.10
2023-05-13T19:23:01.340Z,21.10
2023-05-13T19:25:28.055Z,21.00
2023-05-13T19:27:54.997Z,20.90
2023-05-13T19:30:21.914Z,20.80
2023-05-13T19:32:48.815Z,20.90
2023-05-13T19:35:16.324Z,20.80
2023-05-13T19:37:42.956Z,20.80
2023-05-13T19:40:10.171Z,20.60
2023-05-13T19:42:36.811Z,20.50
2023-05-13T19:45:06.265Z,20.50
2023-05-13T19:47:33.837Z,20.50
2023-05-13T19:50:00.490Z,20.50
2023-05-13T19:52:27.123Z,20.40
2023-05-13T19:54:53.713Z,20.30
2023-05-13T19:57:21.225Z,20.20
2023-05-13T19:59:47.950Z,20.10
2023-05-13T20:02:14.639Z,20.10
2023-05-13T20:04:41.266Z,20.10
2023-05-13T20:07:09.365Z,20.10
2023-05-13T20:09:36.274Z,20.00
2023-05-13T20:12:03.642Z,20.00
2023-05-13T20:14:44.009Z,19.90
2023-05-13T20:17:11.361Z,19.90
2023-05-13T20:19:38.129Z,19.80
2023-05-13T20:22:04.801Z,19.80
2023-05-13T20:24:31.387Z,19.80
2023-05-13T20:26:59.925Z,19.70
2023-05-13T20:29:27.402Z,19.60
2023-05-13T20:31:54.069Z,19.60
2023-05-13T20:34:20.805Z,19.60
2023-05-13T20:36:47.375Z,19.50
2023-05-13T20:39:14.016Z,19.50
2023-05-13T20:41:40.775Z,19.40
2023-05-13T20:44:07.775Z,19.40
2023-05-13T20:46:34.424Z,19.30
2023-05-13T20:49:01.053Z,19.20
2023-05-13T20:51:27.648Z,19.30
2023-05-13T20:53:54.215Z,19.20
2023-05-13T20:56:21.535Z,19.20
2023-05-13T20:58:48.130Z,19.10
2023-05-13T21:01:14.997Z,19.20
2023-05-13T21:03:41.716Z,19.20
2023-05-13T21:06:08.349Z,19.10
2023-05-13T21:08:39.974Z,19.10
2023-05-13T21:11:06.963Z,19.00
2023-05-13T21:13:33.902Z,19.00
2023-05-13T21:16:02.837Z,18.90
2023-05-13T21:18:29.554Z,18.90
2023-05-13T21:20:56.250Z,18.80
2023-05-13T21:23:22.895Z,18.60
2023-05-13T21:25:49.543Z,18.60
2023-05-13T21:28:16.834Z,18.50
2023-05-13T21:30:43.427Z,18.60
2023-05-13T21:33:10.710Z,18.50
2023-05-13T21:35:37.384Z,18.50
2023-05-13T21:38:11.581Z,18.50
2023-05-13T21:40:38.884Z,18.50
2023-05-13T21:43:05.499Z,18.50
2023-05-13T21:45:32.076Z,18.40
2023-05-13T21:47:58.751Z,18.50
2023-05-13T21:50:25.509Z,18.50
2023-05-13T21:52:52.153Z,18.50
2023-05-13T21:55:18.746Z,18.50
2023-05-13T21:57:45.378Z,18.50
2023-05-13T22:00:15.159Z,18.40
2023-05-13T22:02:42.136Z,18.40
2023-05-13T22:05:09.042Z,18.40
2023-05-13T22:07:36.169Z,18.30
2023-05-13T22:10:02.941Z,18.30
2023-05-13T22:12:29.537Z,18.30
2023-05-13T22:14:56.137Z,18.10
2023-05-13T22:17:22.770Z,18.10
2023-05-13T22:19:49.490Z,18.20
2023-05-13T22:22:16.162Z,18.20
2023-05-13T22:24:42.796Z,18.20
2023-05-13T22:27:09.590Z,18.00
2023-05-13T22:29:36.249Z,18.00
2023-05-13T22:32:05.004Z,18.00
2023-05-13T22:34:32.555Z,18.00
2023-05-13T22:36:59.108Z,17.90
2023-05-13T22:39:26.150Z,17.90
2023-05-13T22:41:54.599Z,17.90
2023-05-13T22:44:22.912Z,17.80
2023-05-13T22:46:49.676Z,17.80
2023-05-13T22:49:16.323Z,17.80
2023-05-13T22:51:43.155Z,17.80
2023-05-13T22:54:09.796Z,17.60
2023-05-13T22:56:36.392Z,17.60
2023-05-13T22:59:03.608Z,17.60
2023-05-13T23:01:30.438Z,17.60
2023-05-13T23:03:57.065Z,17.60
2023-05-13T23:06:23.653Z,17.60
2023-05-13T23:08:50.399Z,17.60
2023-05-13T23:11:17.010Z,17.60
2023-05-13T23:13:43.578Z,17.50
2023-05-13T23:16:10.340Z,17.50
2023-05-13T23:18:36.988Z,17.40
2023-05-13T23:21:03.714Z,17.30
2023-05-13T23:23:30.428Z,17.30
2023-05-13T23:25:57.252Z,17.30
2023-05-13T23:28:23.856Z,17.30
2023-05-13T23:30:52.820Z,17.20
2023-05-13T23:33:19.439Z,17.20
2023-05-13T23:35:52.807Z,17.10
2023-05-13T23:38:19.366Z,17.10
2023-05-13T23:40:46.268Z,17.10
2023-05-13T23:43:12.893Z,17.10
2023-05-13T23:45:39.595Z,17.10
2023-05-13T23:48:06.463Z,17.00
2023-05-13T23:50:33.139Z,17.00
2023-05-13T23:52:59.716Z,17.00
2023-05-13T23:55:26.333Z,16.90
2023-05-13T23:57:52.875Z,16.90
